createdAt,value
2023-01-12T00:00:35.609Z,2.28
2023-01-12T00:03:37.101Z,2.28
2023-01-12T00:06:38.613Z,2.20
2023-01-12T00:09:40.238Z,2.42
2023-01-12T00:12:43.042Z,1.98
2023-01-12T00:15:44.501Z,2.17
2023-01-12T00:18:46.410Z,3.00
2023-01-12T00:24:50.237Z,2.63
2023-01-12T00:27:53.077Z,2.58
2023-01-12T00:31:00.008Z,2.60
2023-01-12T00:34:01.539Z,2.65
2023-01-12T00:37:03.978Z,2.38
2023-01-12T00:40:06.577Z,3.13
2023-01-12T00:43:09.404Z,2.70
2023-01-12T00:46:10.942Z,2.40
2023-01-12T00:49:12.464Z,2.65
2023-01-12T00:52:24.967Z,3.03
2023-01-12T00:55:31.185Z,2.35
2023-01-12T00:58:33.967Z,2.85
2023-01-12T01:01:35.691Z,2.22
2023-01-12T01:04:37.256Z,2.28
2023-01-12T01:07:38.787Z,2.60
2023-01-12T01:10:40.248Z,2.47
2023-01-12T01:13:43.584Z,1.95
2023-01-12T01:16:45.057Z,2.20
2023-01-12T01:19:47.106Z,2.30
2023-01-12T01:25:50.083Z,2.13
2023-01-12T01:28:52.917Z,1.20
2023-01-12T01:31:54.625Z,2.13
2023-01-12T01:34:56.062Z,1.27
2023-01-12T01:37:57.543Z,1.58
2023-01-12T01:40:59.152Z,2.10
2023-01-12T01:44:04.053Z,1.35
2023-01-12T01:47:07.264Z,1.92
2023-01-12T01:50:18.842Z,2.47
2023-01-12T01:53:22.193Z,2.20
2023-01-12T01:56:26.569Z,1.90
2023-01-12T01:59:31.564Z,1.77
2023-01-12T02:02:34.517Z,2.00
2023-01-12T02:05:37.036Z,1.92
2023-01-12T02:08:43.655Z,1.92
2023-01-12T02:11:46.133Z,2.22
2023-01-12T02:14:52.149Z,1.90
2023-01-12T02:18:03.011Z,2.10
2023-01-12T02:21:11.933Z,2.30
2023-01-12T02:24:53.468Z,2.88
2023-01-12T02:28:13.038Z,2.65
2023-01-12T02:31:26.791Z,2.53
2023-01-12T02:34:32.609Z,3.10
2023-01-12T02:37:37.144Z,2.60
2023-01-12T02:40:43.625Z,2.92
2023-01-12T02:43:45.722Z,2.83
2023-01-12T02:46:51.082Z,2.63
2023-01-12T02:49:53.993Z,1.98
2023-01-12T02:53:00.764Z,2.20
2023-01-12T02:56:04.291Z,2.10
2023-01-12T02:59:08.089Z,1.95
2023-01-12T03:02:13.706Z,1.85
2023-01-12T03:05:15.324Z,2.20
2023-01-12T03:08:18.981Z,1.83
2023-01-12T03:11:21.579Z,1.90
2023-01-12T03:14:23.068Z,2.45
2023-01-12T03:17:28.170Z,2.30
2023-01-12T03:20:33.092Z,1.90
2023-01-12T03:23:39.380Z,2.10
2023-01-12T03:26:44.183Z,2.15
2023-01-12T03:29:48.266Z,2.25
2023-01-12T03:32:51.667Z,2.03
2023-01-12T03:36:04.860Z,2.35
2023-01-12T03:39:13.337Z,2.65
2023-01-12T03:42:17.927Z,2.58
2023-01-12T03:45:25.204Z,2.20
2023-01-12T03:48:32.961Z,2.30
2023-01-12T03:51:38.174Z,2.25
2023-01-12T03:54:40.066Z,2.20
2023-01-12T03:57:41.953Z,2.53
2023-01-12T04:03:46.341Z,2.50
2023-01-12T04:06:48.889Z,2.50
2023-01-12T04:09:50.329Z,2.40
2023-01-12T04:12:51.806Z,2.63
2023-01-12T04:15:53.260Z,2.45
2023-01-12T04:18:56.405Z,2.95
2023-01-12T04:21:59.897Z,2.67
2023-01-12T04:25:01.387Z,2.10
2023-01-12T04:28:02.960Z,2.15
2023-01-12T04:31:04.595Z,2.03
2023-01-12T04:34:07.587Z,1.92
2023-01-12T04:37:09.174Z,1.60
2023-01-12T04:40:12.293Z,2.10
2023-01-12T04:43:13.745Z,1.80
2023-01-12T04:46:15.257Z,1.83
2023-01-12T04:49:18.218Z,2.13
2023-01-12T04:52:19.759Z,1.50
2023-01-12T04:55:21.234Z,2.63
2023-01-12T04:58:23.044Z,2.13
2023-01-12T05:01:24.606Z,1.67
2023-01-12T05:04:27.671Z,1.40
2023-01-12T05:07:29.176Z,1.92
2023-01-12T05:10:30.680Z,1.95
2023-01-12T05:13:32.153Z,1.55
2023-01-12T05:16:33.791Z,1.80
2023-01-12T05:19:36.664Z,1.75
2023-01-12T05:22:38.136Z,2.03
2023-01-12T05:25:39.642Z,1.50
2023-01-12T05:28:41.355Z,1.58
2023-01-12T05:31:42.825Z,1.42
2023-01-12T05:34:45.621Z,1.63
2023-01-12T05:37:47.223Z,1.15
2023-01-12T05:40:48.657Z,1.23
2023-01-12T05:43:50.300Z,1.40
2023-01-12T05:46:52.338Z,1.08
2023-01-12T05:52:56.619Z,1.48
2023-01-12T05:55:58.435Z,1.65
2023-01-12T05:59:01.256Z,1.42
2023-01-12T06:02:02.877Z,1.33
2023-01-12T06:05:07.496Z,1.38
2023-01-12T06:08:09.015Z,1.30
2023-01-12T06:11:10.502Z,2.50
2023-01-12T06:14:12.000Z,2.13
2023-01-12T06:17:14.425Z,1.80
2023-01-12T06:20:19.386Z,2.45
2023-01-12T06:23:20.866Z,1.27
2023-01-12T06:26:37.248Z,1.77
2023-01-12T06:29:38.841Z,0.90
2023-01-12T06:32:47.961Z,1.15
2023-01-12T06:35:50.864Z,1.00
2023-01-12T06:38:52.331Z,0.70
2023-01-12T06:41:56.879Z,1.33
2023-01-12T06:44:59.654Z,0.80
2023-01-12T06:48:01.751Z,0.75
2023-01-12T06:51:05.510Z,0.60
2023-01-12T06:54:07.134Z,0.70
2023-01-12T06:57:08.670Z,1.60
2023-01-12T07:03:40.450Z,0.73
2023-01-12T07:06:43.821Z,1.20
2023-01-12T07:09:45.260Z,0.93
2023-01-12T07:12:46.706Z,0.90
2023-01-12T07:15:48.339Z,0.68
2023-01-12T07:18:49.896Z,0.52
2023-01-12T07:21:52.867Z,0.77
2023-01-12T07:24:56.474Z,0.73
2023-01-12T07:27:59.050Z,0.50
2023-01-12T07:31:01.120Z,1.05
2023-01-12T07:34:02.701Z,0.50
2023-01-12T07:37:06.483Z,0.75
2023-01-12T07:40:09.676Z,0.55
2023-01-12T07:43:11.722Z,0.40
2023-01-12T07:46:13.416Z,0.70
2023-01-12T07:49:21.284Z,0.45
2023-01-12T07:52:31.234Z,0.50
2023-01-12T07:55:36.309Z,0.63
2023-01-12T07:58:44.485Z,0.85
2023-01-12T08:01:47.799Z,0.43
2023-01-12T08:04:56.005Z,0.52
2023-01-12T08:08:03.453Z,0.60
2023-01-12T08:11:10.009Z,0.60
2023-01-12T08:14:13.008Z,0.40
2023-01-12T08:17:26.139Z,0.47
2023-01-12T08:20:30.052Z,0.60
2023-01-12T08:23:41.765Z,0.40
2023-01-12T08:26:51.747Z,0.70
2023-01-12T08:29:55.072Z,0.50
2023-01-12T08:32:58.411Z,0.30
2023-01-12T08:36:03.990Z,0.57
2023-01-12T08:39:16.824Z,0.52
2023-01-12T08:42:26.504Z,0.93
2023-01-12T08:45:35.336Z,0.60
2023-01-12T08:48:37.983Z,0.25
2023-01-12T08:51:48.408Z,0.50
2023-01-12T08:54:51.602Z,0.40
2023-01-12T08:57:56.007Z,0.75
2023-01-12T09:01:06.441Z,1.30
2023-01-12T09:04:11.344Z,0.52
2023-01-12T09:07:12.993Z,1.30
2023-01-12T09:10:25.727Z,0.88
2023-01-12T09:13:32.461Z,0.30
2023-01-12T09:16:38.084Z,0.60
2023-01-12T09:19:40.023Z,0.88
2023-01-12T09:22:41.595Z,0.47
2023-01-12T09:25:44.364Z,0.30
2023-01-12T09:28:57.304Z,0.35
2023-01-12T09:31:58.880Z,0.30
2023-01-12T09:35:02.952Z,0.30
2023-01-12T09:38:07.029Z,0.35
2023-01-12T09:41:12.363Z,0.50
2023-01-12T09:44:25.024Z,0.38
2023-01-12T09:47:28.356Z,0.40
2023-01-12T09:50:37.128Z,0.50
2023-01-12T09:53:40.297Z,0.40
2023-01-12T09:56:46.860Z,0.60
2023-01-12T09:59:52.912Z,0.80
2023-01-12T10:03:06.052Z,0.90
2023-01-12T10:06:12.920Z,1.35
2023-01-12T10:12:52.709Z,2.28
2023-01-12T10:16:01.649Z,1.58
2023-01-12T10:19:08.928Z,2.10
2023-01-12T10:22:18.571Z,2.17
2023-01-12T10:25:26.027Z,1.60
2023-01-12T10:28:30.678Z,0.90
2023-01-12T10:31:33.137Z,1.13
2023-01-12T10:34:52.069Z,0.98
2023-01-12T10:44:14.014Z,0.90
2023-01-12T10:47:18.525Z,0.90
2023-01-12T10:50:31.850Z,1.00
2023-01-12T10:53:38.682Z,1.10
2023-01-12T10:56:49.067Z,1.10
2023-01-12T10:59:59.444Z,1.00
2023-01-12T11:03:01.455Z,0.95
2023-01-12T11:06:22.995Z,1.00
2023-01-12T11:09:32.894Z,1.05
2023-01-12T11:12:39.109Z,1.40
2023-01-12T11:16:01.089Z,1.00
2023-01-12T11:19:13.599Z,1.77
2023-01-12T11:22:18.612Z,1.10
2023-01-12T11:25:23.357Z,1.63
2023-01-12T11:28:28.358Z,1.40
2023-01-12T11:31:36.491Z,1.38
2023-01-12T11:34:56.941Z,1.50
2023-01-12T11:38:05.734Z,1.80
2023-01-12T11:41:19.734Z,1.35
2023-01-12T11:44:25.426Z,1.50
2023-01-12T11:47:41.580Z,1.13
2023-01-12T11:50:48.137Z,0.93
2023-01-12T11:53:50.234Z,1.20
2023-01-12T11:57:20.246Z,0.90
2023-01-12T12:00:30.075Z,0.80
2023-01-12T12:03:44.155Z,1.20
2023-01-12T12:06:59.619Z,1.00
2023-01-12T12:10:15.516Z,1.20
2023-01-12T12:13:28.213Z,1.52
2023-01-12T12:16:44.055Z,1.45
2023-01-12T12:19:57.413Z,1.40
2023-01-12T12:23:14.119Z,1.52
2023-01-12T12:26:27.180Z,1.33
2023-01-12T12:29:57.858Z,1.65
2023-01-12T12:33:05.085Z,1.60
2023-01-12T12:36:21.199Z,1.45
2023-01-12T12:39:43.409Z,1.77
2023-01-12T12:42:54.257Z,1.40
2023-01-12T12:46:06.883Z,1.17
2023-01-12T12:49:19.583Z,1.52
2023-01-12T12:52:27.335Z,1.33
2023-01-12T12:55:29.531Z,1.33
2023-01-12T12:58:49.098Z,1.45
2023-01-12T13:01:57.222Z,1.40
2023-01-12T13:05:02.522Z,1.40
2023-01-12T13:08:17.137Z,1.40
2023-01-12T13:11:49.839Z,2.10
2023-01-12T13:15:26.837Z,2.33
2023-01-12T13:18:44.572Z,2.42
2023-01-12T13:21:58.210Z,2.63
2023-01-12T13:25:02.976Z,2.90
2023-01-12T13:31:47.880Z,2.15
2023-01-12T13:34:49.951Z,1.92
2023-01-12T13:37:55.632Z,2.50
2023-01-12T13:41:14.607Z,1.80
2023-01-12T13:44:29.218Z,1.45
2023-01-12T13:47:30.785Z,1.50
2023-01-12T13:50:32.411Z,1.58
2023-01-12T13:53:33.872Z,1.38
2023-01-12T13:56:36.813Z,1.60
2023-01-12T13:59:56.611Z,1.30
2023-01-12T14:02:58.439Z,1.30
2023-01-12T14:09:14.039Z,3.00
2023-01-12T14:12:44.954Z,1.60
2023-01-12T14:18:49.479Z,1.58
2023-01-12T14:22:01.209Z,1.80
2023-01-12T14:25:14.371Z,1.83
2023-01-12T14:28:24.004Z,1.60
2023-01-12T14:31:27.497Z,1.70
2023-01-12T14:34:39.403Z,1.50
2023-01-12T14:37:50.056Z,1.38
2023-01-12T14:41:08.044Z,1.20
2023-01-12T14:44:18.588Z,1.10
2023-01-12T14:47:24.190Z,1.10
2023-01-12T14:50:28.334Z,1.35
2023-01-12T14:53:39.242Z,0.75
2023-01-12T14:56:42.272Z,0.93
2023-01-12T14:59:46.401Z,1.15
2023-01-12T15:02:59.025Z,0.93
2023-01-12T15:06:14.308Z,0.82
2023-01-12T15:09:29.109Z,0.90
2023-01-12T15:12:42.953Z,1.02
2023-01-12T15:15:45.831Z,0.90
2023-01-12T15:19:00.352Z,0.80
2023-01-12T15:22:08.907Z,1.00
2023-01-12T15:25:15.327Z,1.15
2023-01-12T15:28:22.500Z,1.80
2023-01-12T15:31:27.785Z,1.05
2023-01-12T15:34:35.649Z,1.00
2023-01-12T15:37:37.792Z,1.27
2023-01-12T15:40:39.793Z,1.30
2023-01-12T15:43:48.727Z,1.30
2023-01-12T15:46:51.532Z,1.23
2023-01-12T15:49:56.903Z,1.15
2023-01-12T15:53:01.409Z,1.00
2023-01-12T15:59:08.014Z,1.33
2023-01-12T16:02:27.257Z,1.48
2023-01-12T16:05:32.512Z,2.40
2023-01-12T16:08:34.042Z,1.70
2023-01-12T16:11:35.487Z,1.10
2023-01-12T16:14:37.207Z,2.58
2023-01-12T16:17:39.978Z,2.97
2023-01-12T16:20:44.199Z,2.30
2023-01-12T16:23:51.687Z,1.90
2023-01-12T16:26:53.267Z,1.83
2023-01-12T16:29:54.830Z,1.73
2023-01-12T16:32:58.985Z,1.63
2023-01-12T16:36:00.561Z,1.67
2023-01-12T16:39:02.025Z,1.80
2023-01-12T16:42:03.718Z,1.30
2023-01-12T16:45:05.830Z,1.45
2023-01-12T16:48:12.189Z,1.27
2023-01-12T16:51:14.934Z,1.10
2023-01-12T16:54:16.552Z,1.38
2023-01-12T16:57:18.865Z,1.23
2023-01-12T17:00:27.631Z,1.10
2023-01-12T17:03:40.639Z,1.23
2023-01-12T17:06:43.244Z,1.10
2023-01-12T17:09:44.851Z,1.27
2023-01-12T17:12:52.984Z,1.15
2023-01-12T17:16:05.372Z,1.10
2023-01-12T17:19:08.183Z,1.27
2023-01-12T17:22:20.099Z,1.15
2023-01-12T17:25:21.699Z,1.20
2023-01-12T17:28:23.353Z,2.45
2023-01-12T17:31:25.282Z,2.10
2023-01-12T17:34:28.556Z,1.40
2023-01-12T17:37:30.218Z,1.00
2023-01-12T17:40:31.730Z,1.23
2023-01-12T17:43:33.234Z,1.30
2023-01-12T17:46:38.565Z,1.10
2023-01-12T17:49:48.272Z,1.00
2023-01-12T17:52:56.938Z,0.98
2023-01-12T17:56:01.723Z,1.00
2023-01-12T17:59:04.254Z,1.00
2023-01-12T18:02:07.053Z,1.00
2023-01-12T18:05:13.565Z,1.00
2023-01-12T18:08:15.035Z,1.10
2023-01-12T18:11:17.074Z,1.40
2023-01-12T18:14:18.597Z,0.90
2023-01-12T18:17:20.124Z,0.82
2023-01-12T18:20:23.132Z,1.10
2023-01-12T18:23:29.797Z,1.23
2023-01-12T18:26:32.885Z,1.65
2023-01-12T18:29:34.647Z,3.28
2023-01-12T18:32:47.558Z,2.78
2023-01-12T18:35:54.566Z,1.50
2023-01-12T18:38:56.046Z,1.50
2023-01-12T18:41:59.264Z,1.30
2023-01-12T18:45:00.754Z,1.10
2023-01-12T18:48:02.223Z,1.30
2023-01-12T18:51:05.226Z,1.45
2023-01-12T18:54:10.583Z,1.00
2023-01-12T19:00:25.828Z,1.00
2023-01-12T19:03:30.049Z,1.15
2023-01-12T19:06:33.049Z,1.10
2023-01-12T19:09:34.613Z,0.98
2023-01-12T19:12:36.078Z,0.90
2023-01-12T19:15:37.840Z,1.08
2023-01-12T19:18:43.071Z,0.75
2023-01-12T19:21:46.251Z,1.00
2023-01-12T19:24:47.761Z,0.90
2023-01-12T19:27:49.264Z,1.00
2023-01-12T19:30:58.386Z,1.40
2023-01-12T19:33:59.874Z,0.90
2023-01-12T19:37:02.946Z,1.25
2023-01-12T19:40:05.543Z,1.08
2023-01-12T19:43:08.888Z,1.20
2023-01-12T19:46:10.378Z,2.20
2023-01-12T19:49:11.855Z,1.75
2023-01-12T19:52:19.496Z,1.05
2023-01-12T19:55:27.620Z,1.25
2023-01-12T19:58:33.317Z,1.10
2023-01-12T20:01:34.999Z,1.00
2023-01-12T20:04:36.867Z,1.63
2023-01-12T20:07:41.700Z,1.55
2023-01-12T20:10:43.949Z,1.40
2023-01-12T20:13:45.450Z,1.15
2023-01-12T20:16:46.933Z,1.23
2023-01-12T20:19:48.849Z,1.00
2023-01-12T20:25:53.269Z,1.15
2023-01-12T20:28:54.753Z,0.90
2023-01-12T20:31:56.290Z,0.85
2023-01-12T20:35:04.565Z,1.00
2023-01-12T20:38:07.406Z,0.85
2023-01-12T20:41:13.776Z,1.00
2023-01-12T20:44:18.307Z,1.20
2023-01-12T20:47:19.852Z,1.23
2023-01-12T20:50:21.343Z,1.52
2023-01-12T20:53:24.307Z,1.40
2023-01-12T20:56:25.908Z,1.45
2023-01-12T20:59:31.413Z,1.33
2023-01-12T21:02:33.025Z,1.10
2023-01-12T21:05:34.938Z,1.40
2023-01-12T21:08:49.510Z,1.10
2023-01-12T21:11:51.808Z,1.00
2023-01-12T21:14:53.355Z,0.88
2023-01-12T21:17:54.867Z,1.10
2023-01-12T21:20:58.418Z,0.88
2023-01-12T21:24:01.230Z,1.00
2023-01-12T21:27:02.872Z,0.90
2023-01-12T21:30:08.353Z,1.08
2023-01-12T21:33:10.140Z,1.30
2023-01-12T21:39:14.496Z,1.17
2023-01-12T21:42:16.026Z,1.50
2023-01-12T21:45:17.511Z,1.17
2023-01-12T21:48:20.198Z,1.10
2023-01-12T21:51:23.837Z,1.10
2023-01-12T21:54:26.646Z,1.20
2023-01-12T21:57:28.131Z,1.05
2023-01-12T22:00:36.573Z,0.90
2023-01-12T22:03:38.207Z,1.48
2023-01-12T22:06:39.704Z,1.30
2023-01-12T22:09:42.523Z,0.88
2023-01-12T22:12:44.311Z,1.27
2023-01-12T22:15:45.754Z,1.63
2023-01-12T22:18:48.959Z,1.58
2023-01-12T22:21:50.424Z,1.10
2023-01-12T22:24:53.256Z,1.17
2023-01-12T22:27:56.165Z,1.25
2023-01-12T22:30:57.691Z,1.40
2023-01-12T22:34:00.318Z,1.40
2023-01-12T22:37:01.897Z,1.10
2023-01-12T22:43:08.539Z,1.35
2023-01-12T22:46:13.803Z,1.50
2023-01-12T22:49:15.349Z,1.48
2023-01-12T22:52:16.812Z,1.63
2023-01-12T22:55:20.658Z,1.30
2023-01-12T22:58:22.130Z,1.63
2023-01-12T23:01:24.658Z,1.60
2023-01-12T23:04:26.356Z,1.42
2023-01-12T23:07:28.080Z,1.63
2023-01-12T23:10:31.392Z,1.67
2023-01-12T23:13:33.117Z,1.80
2023-01-12T23:16:34.829Z,1.52
2023-01-12T23:19:36.522Z,1.30
2023-01-12T23:22:38.208Z,1.50
2023-01-12T23:25:41.290Z,1.50
2023-01-12T23:28:46.045Z,1.63
2023-01-12T23:31:47.952Z,1.50
2023-01-12T23:37:51.268Z,1.60
2023-01-12T23:40:54.211Z,1.33
2023-01-12T23:43:57.635Z,1.50
2023-01-12T23:46:59.269Z,1.48
2023-01-12T23:50:00.940Z,1.70
2023-01-12T23:53:02.573Z,1.88
2023-01-12T23:56:07.905Z,1.90
2023-01-12T23:59:09.559Z,1.83
